Latest Weather Observations for Devonport Airport

IDT60801

Issued at 5:51 pm EST Wednesday 24 April 2019 (issued every 10 minutes, with the page automatically refreshed every 10 minutes)

About weather observations | Map of weather stations | Latest weather observations for TAS | Other Formats
Station Details ID: 091126 Name: DEVONPORT AIRPORT Lat: -41.17 Lon: 146.43 Height: 8.0 m
Data from the previous 72 hours. | See also: Recent months at Devonport Airport
Date/Time
EST
Temp
°C
App
Temp
°C
Dew
Point
°C
Rel
Hum
%
Delta-T
°C
Wind Press
QNH
hPa
Press
MSL
hPa
Rain since
9am
mm
Dir  Spd
km/h
Gust
km/h
Spd
kts
Gust
kts
24/05:30pm 15.2 8.8 9.3 68 3.0 WNW 33 43 18 23 1017.8 1017.8 0.0
24/05:00pm 15.9 10.1 11.5 75 2.4 WNW 33 44 18 24 1018.0 1017.9 0.0
24/04:30pm 15.6 10.5 13.8 89 1.0 NW 33 41 18 22 1018.1 1018.0 0.0
24/04:00pm 15.4 9.8 13.2 87 1.2 NW 35 44 19 24 1018.4 1018.3 0.0
24/03:30pm 15.9 11.1 12.8 82 1.7 NW 30 39 16 21 1018.7 1018.6 0.0
24/03:23pm 16.0 11.7 13.3 84 1.5 NW 28 35 15 19 1018.7 1018.6 0.0
24/03:00pm 15.7 11.4 13.2 85 1.4 NW 28 33 15 18 1018.8 1018.7 0.0
24/02:30pm 16.1 11.2 12.7 80 1.9 NW 30 35 16 19 1019.4 1019.3 0.0
24/02:00pm 16.1 11.3 13.0 82 1.7 NW 30 39 16 21 1019.4 1019.3 0.0
24/01:30pm 15.4 11.1 13.2 87 1.2 NW 28 35 15 19 1020.2 1020.1 0.0
24/01:00pm 15.8 10.5 12.4 80 1.9 NW 32 37 17 20 1020.7 1020.6 0.0
24/12:30pm 15.7 10.7 12.3 80 1.9 NW 30 37 16 20 1020.6 1020.5 0.0
24/12:00pm 16.5 12.2 11.9 74 2.5 NW 26 33 14 18 1021.2 1021.2 0.0
24/11:30am 15.6 12.9 11.6 77 2.2 NW 17 22 9 12 1022.1 1022.1 0.0
24/11:00am 14.5 12.8 11.1 80 1.8 NW 11 19 6 10 1022.7 1022.7 0.0
24/10:30am 13.7 12.2 10.5 81 1.7 WNW 9 13 5 7 1022.9 1022.9 0.0
24/10:00am 13.0 12.2 11.1 88 1.0 SW 6 9 3 5 1023.0 1023.0 0.0
24/09:30am 12.0 10.7 11.4 96 0.3 SSW 9 11 5 6 1023.2 1023.2 0.0
24/09:00am 10.9 9.4 10.4 97 0.3 SSW 9 13 5 7 1023.3 1023.3 0.0
24/08:30am 10.7 8.8 10.5 99 0.1 S 11 13 6 7 1023.2 1023.2 0.0
24/08:00am 8.9 6.2 8.8 99 0.0 S 13 17 7 9 1023.3 1023.3 0.0
24/07:30am 8.0 5.0 7.9 99 0.0 S 13 15 7 8 1023.4 1023.4 0.0
24/07:00am 8.2 5.3 8.1 99 0.0 S 13 15 7 8 1023.4 1023.4 0.0
24/06:30am 8.2 5.3 8.1 99 0.0 S 13 15 7 8 1023.4 1023.4 0.0
24/06:00am 8.2 5.7 8.1 99 0.0 S 11 13 6 7 1023.4 1023.4 0.0
24/05:30am 7.9 5.3 7.8 99 0.0 S 11 15 6 8 1023.5 1023.5 0.0
24/05:00am 8.4 5.9 8.3 99 0.0 S 11 13 6 7 1023.8 1023.8 0.0
24/04:30am 8.6 6.2 8.5 99 0.0 SSE 11 13 6 7 1023.9 1023.9 0.0
24/04:00am 8.9 6.2 8.8 99 0.0 S 13 15 7 8 1023.8 1023.8 0.0
24/03:30am 8.6 6.6 8.5 99 0.0 SSE 9 11 5 6 1024.0 1024.0 0.0
24/03:00am 8.9 6.5 8.6 98 0.1 S 11 13 6 7 1024.2 1024.2 0.0
24/02:30am 9.3 7.4 9.0 98 0.1 S 9 11 5 6 1024.7 1024.7 0.0
24/02:00am 9.3 6.9 8.8 97 0.2 S 11 13 6 7 1024.9 1024.9 0.0
24/01:30am 10.2 7.7 9.7 97 0.3 SSE 13 15 7 8 1025.1 1025.1 0.0
24/01:00am 9.9 7.3 9.3 96 0.3 SSE 13 13 7 7 1025.2 1025.2 0.0
24/12:30am 9.9 7.5 8.8 93 0.5 S 11 13 6 7 1025.4 1025.4 0.0
24/12:00am 9.9 7.5 8.8 93 0.5 S 11 13 6 7 1025.4 1025.4 0.0
 
Date/Time
EST
Temp
°C
App
Temp
°C
Dew
Point
°C
Rel
Hum
%
Delta-T
°C
Wind Press
QNH
hPa
Press
MSL
hPa
Rain since
9am
mm
Dir  Spd
km/h
Gust
km/h
Spd
kts
Gust
kts
23/11:30pm 10.7 8.9 9.3 91 0.7 SSE 9 11 5 6 1025.6 1025.6 0.0
23/11:00pm 10.8 8.9 9.2 90 0.8 S 9 11 5 6 1025.7 1025.7 0.0
23/10:30pm 11.4 10.6 9.5 88 1.0 SSE 4 9 2 5 1025.8 1025.8 0.0
23/10:00pm 11.6 10.1 9.3 86 1.1 SSE 7 9 4 5 1025.9 1025.9 0.0
23/09:30pm 12.5 11.0 9.3 81 1.6 WSW 7 11 4 6 1026.0 1026.0 0.0
23/09:00pm 12.4 9.5 9.6 83 1.4 WSW 15 20 8 11 1026.1 1026.1 0.0
23/08:30pm 12.4 9.4 9.4 82 1.5 WSW 15 19 8 10 1026.1 1026.1 0.0
23/08:00pm 13.4 9.7 9.6 78 1.9 W 19 20 10 11 1026.0 1026.0 0.0
23/07:30pm 14.7 11.2 10.1 74 2.4 WNW 19 22 10 12 1026.1 1026.1 0.0
23/07:00pm 13.5 10.5 10.5 82 1.6 W 17 19 9 10 1025.9 1025.9 0.0
23/06:30pm 13.7 11.3 10.1 79 1.9 W 13 15 7 8 1025.7 1025.7 0.0
23/06:00pm 14.4 11.9 9.8 74 2.4 W 13 15 7 8 1025.6 1025.6 0.0
23/05:30pm 15.4 13.0 10.2 71 2.7 W 13 19 7 10 1025.3 1025.3 0.0
23/05:00pm 16.4 12.8 13.1 81 1.8 WNW 24 28 13 15 1025.2 1025.2 0.0
23/04:30pm 16.5 12.8 12.8 79 2.1 NW 24 32 13 17 1025.4 1025.4 0.0
23/04:00pm 16.8 13.4 12.5 76 2.4 NW 22 28 12 15 1025.3 1025.3 0.0
23/03:30pm 17.1 13.7 12.6 75 2.5 NW 22 28 12 15 1025.6 1025.6 0.0
23/03:00pm 17.4 13.9 12.1 71 2.9 NW 22 28 12 15 1025.7 1025.7 0.0
23/02:30pm 16.6 14.5 11.3 71 2.9 NNW 13 20 7 11 1025.8 1025.8 0.0
23/02:00pm 16.1 13.6 9.8 66 3.3 NW 13 17 7 9 1026.1 1026.1 0.0
23/01:30pm 15.5 12.1 9.2 66 3.2 NNW 17 20 9 11 1026.4 1026.4 0.0
23/01:00pm 15.2 11.9 9.6 69 2.9 NNW 17 22 9 12 1026.9 1026.9 0.0
23/12:30pm 15.3 12.1 9.9 70 2.8 NNW 17 22 9 12 1027.2 1027.2 0.0
23/12:00pm 15.0 11.8 10.0 72 2.6 NNW 17 20 9 11 1027.8 1027.8 0.0
23/11:30am 15.3 12.3 9.2 67 3.1 NNW 15 19 8 10 1027.8 1027.8 0.0
23/11:00am 15.0 12.0 9.1 68 3.0 NNW 15 17 8 9 1027.9 1027.9 0.0
23/10:30am 15.2 13.9 9.1 67 3.1 ESE 6 11 3 6 1027.9 1027.9 0.0
23/10:00am 13.7 11.8 9.0 73 2.4 S 9 11 5 6 1028.1 1028.1 0.0
23/09:30am 12.5 10.0 8.2 75 2.1 S 11 13 6 7 1028.2 1028.2 0.0
23/09:00am 11.3 7.9 7.6 78 1.8 S 15 17 8 9 1028.3 1028.3 0.0
23/08:30am 9.7 5.8 7.0 83 1.3 SSE 17 19 9 10 1028.3 1028.3 0.0
23/08:00am 8.0 4.4 6.6 91 0.6 S 15 19 8 10 1028.1 1028.1 0.0
23/07:30am 6.4 2.5 5.4 93 0.4 S 15 17 8 9 1027.8 1027.8 0.0
23/07:00am 5.9 1.5 4.9 93 0.4 S 17 19 9 10 1027.5 1027.5 0.0
23/06:30am 6.7 2.8 5.3 91 0.6 S 15 17 8 9 1027.3 1027.3 0.0
23/06:00am 6.3 2.0 5.1 92 0.5 SSE 17 19 9 10 1027.4 1027.4 0.0
23/05:30am 6.5 2.6 5.5 93 0.4 S 15 19 8 10 1027.2 1027.2 0.0
23/05:00am 6.3 2.4 5.3 93 0.4 S 15 19 8 10 1027.0 1027.0 0.0
23/04:30am 7.0 3.1 5.5 90 0.7 S 15 19 8 10 1026.9 1026.9 0.0
23/04:00am 6.8 3.0 5.6 92 0.5 S 15 19 8 10 1026.8 1026.8 0.0
23/03:30am 6.9 2.6 5.4 90 0.7 SSE 17 20 9 11 1026.7 1026.7 0.0
23/03:00am 7.2 3.4 5.8 91 0.6 S 15 17 8 9 1026.8 1026.8 0.0
23/02:30am 7.8 3.7 6.1 89 0.8 S 17 20 9 11 1026.7 1026.7 0.0
23/02:00am 7.8 3.7 6.3 90 0.7 S 17 19 9 10 1026.9 1026.9 0.0
23/01:30am 8.3 4.2 6.4 88 0.9 S 17 19 9 10 1027.1 1027.1 0.0
23/01:00am 7.4 4.0 6.0 91 0.6 SSE 13 17 7 9 1027.2 1027.2 0.0
23/12:30am 7.3 3.9 5.9 91 0.6 SSE 13 15 7 8 1027.3 1027.3 0.0
23/12:00am 7.6 4.3 6.2 91 0.6 SSE 13 15 7 8 1027.3 1027.3 0.0
 
Date/Time
EST
Temp
°C
App
Temp
°C
Dew
Point
°C
Rel
Hum
%
Delta-T
°C
Wind Press
QNH
hPa
Press
MSL
hPa
Rain since
9am
mm
Dir  Spd
km/h
Gust
km/h
Spd
kts
Gust
kts
22/11:30pm 7.7 4.4 6.3 91 0.6 S 13 17 7 9 1027.3 1027.3 0.0
22/11:00pm 7.8 4.9 6.3 90 0.7 S 11 13 6 7 1027.0 1027.0 0.0
22/10:30pm 7.9 4.6 6.4 90 0.7 SSE 13 15 7 8 1027.2 1027.2 0.0
22/10:00pm 8.0 5.4 6.1 88 0.9 SSE 9 11 5 6 1027.2 1027.2 0.0
22/09:30pm 7.8 5.2 5.9 88 0.9 S 9 11 5 6 1027.1 1027.1 0.0
22/09:00pm 11.4 9.0 6.9 74 2.1 WSW 9 11 5 6 1026.9 1026.9 0.0
22/08:30pm 11.2 8.8 7.1 76 2.0 WSW 9 11 5 6 1026.6 1026.6 0.0
22/08:00pm 11.5 8.1 7.6 77 1.9 WNW 15 19 8 10 1026.3 1026.3 0.0
22/07:30pm 11.4 7.5 6.9 74 2.1 W 17 19 9 10 1026.2 1026.2 0.0
22/07:00pm 12.2 8.3 6.9 70 2.5 W 17 20 9 11 1025.9 1025.9 0.0
22/06:30pm 12.1 8.5 6.6 69 2.6 W 15 19 8 10 1025.5 1025.5 0.0
22/06:00pm 13.6 10.4 6.7 63 3.3 W 13 15 7 8 1024.9 1024.9 0.0
22/05:30pm 14.5 10.5 6.8 60 3.7 W 17 19 9 10 1024.6 1024.6 0.0
22/05:00pm 16.7 12.3 7.4 54 4.6 WNW 20 24 11 13 1024.4 1024.4 0.0
22/04:30pm 17.5 12.7 7.5 52 5.0 WNW 22 32 12 17 1024.3 1024.3 0.0
22/04:00pm 18.0 12.6 8.0 52 5.1 WNW 26 33 14 18 1024.0 1024.0 0.0
22/03:30pm 17.7 12.5 8.8 56 4.6 NW 26 35 14 19 1023.8 1023.8 0.0
22/03:00pm 18.0 13.1 8.6 54 4.8 WNW 24 30 13 16 1023.7 1023.7 0.0
22/02:30pm 18.3 13.9 7.4 49 5.5 W 20 26 11 14 1023.5 1023.5 0.0
22/02:00pm 18.2 13.8 6.4 46 5.8 WSW 19 26 10 14 1023.6 1023.6 0.0
22/01:30pm 18.1 14.0 7.8 51 5.2 WSW 19 24 10 13 1023.6 1023.6 0.0
22/01:00pm 18.7 15.0 8.1 50 5.4 W 17 24 9 13 1023.7 1023.7 0.0
22/12:30pm 16.9 13.8 7.3 53 4.8 SSW 13 19 7 10 1024.0 1024.0 0.0
22/12:00pm 17.7 12.8 8.6 55 4.7 W 24 33 13 18 1024.2 1024.2 0.0
22/11:30am 16.8 13.2 6.9 52 4.9 WSW 15 24 8 13 1024.2 1024.2 0.0
22/11:00am 16.2 11.6 8.2 59 4.0 WNW 22 28 12 15 1024.0 1024.0 0.0
22/10:30am 15.6 11.4 8.4 62 3.6 WNW 20 26 11 14 1023.8 1023.8 0.0
22/10:00am 14.8 10.9 7.1 60 3.8 WNW 17 20 9 11 1023.6 1023.6 0.0
22/09:30am 14.6 11.0 6.7 59 3.8 NW 15 17 8 9 1023.4 1023.4 0.0
22/09:00am 14.0 11.0 7.5 65 3.2 WNW 13 17 7 9 1023.2 1023.2 1.6
22/08:30am 12.7 10.2 8.2 74 2.2 WSW 11 17 6 9 1022.9 1022.9 1.6
22/08:00am 11.4 9.2 7.9 79 1.7 WSW 9 11 5 6 1022.7 1022.7 1.6
22/07:30am 10.8 8.5 7.5 80 1.6 WSW 9 11 5 6 1022.2 1022.2 1.6
22/07:00am 10.5 8.4 8.1 85 1.2 WSW 9 13 5 7 1021.6 1021.6 1.6
22/06:30am 10.4 7.2 8.3 87 1.0 W 15 17 8 9 1021.0 1021.0 1.6
22/06:00am 10.8 6.7 8.6 86 1.1 W 20 22 11 12 1020.8 1020.8 1.6
22/05:30am 12.2 7.9 9.4 83 1.4 W 22 28 12 15 1020.3 1020.2 1.6
22/05:00am 12.1 8.8 9.7 85 1.2 W 17 20 9 11 1020.0 1019.9 1.6
22/04:30am 12.8 9.7 10.3 85 1.3 W 17 20 9 11 1019.8 1019.7 1.6
22/04:00am 14.2 9.6 11.2 82 1.6 WNW 26 33 14 18 1019.4 1019.3 1.6
22/03:30am 14.8 9.5 12.5 86 1.3 WNW 32 37 17 20 1019.2 1019.1 1.6
22/03:00am 15.3 11.0 13.2 87 1.2 WNW 28 33 15 18 1019.2 1019.1 1.6
22/02:30am 15.3 10.7 13.5 89 1.0 WNW 30 39 16 21 1019.2 1019.1 1.6
22/02:00am 15.8 11.3 13.8 88 1.1 WNW 30 39 16 21 1019.4 1019.3 1.6
22/01:30am 16.3 12.0 14.3 88 1.1 WNW 30 43 16 23 1019.6 1019.5 1.6
22/01:00am 16.5 13.2 14.9 90 0.9 WNW 26 32 14 17 1019.5 1019.4 1.6
22/12:30am 16.8 15.5 15.8 94 0.6 NW 17 22 9 12 1019.3 1019.2 1.6
22/12:00am 16.6 15.5 16.4 99 0.1 WNW 17 26 9 14 1018.8 1018.7 1.6
 
Date/Time
EST
Temp
°C
App
Temp
°C
Dew
Point
°C
Rel
Hum
%
Delta-T
°C
Wind Press
QNH
hPa
Press
MSL
hPa
Rain since
9am
mm
Dir  Spd
km/h
Gust
km/h
Spd
kts
Gust
kts
21/11:40pm 16.5 16.9 16.3 99 0.1 WNW 9 13 5 7 1018.3 1018.2 1.6
21/11:30pm 16.5 16.5 16.3 99 0.1 W 11 15 6 8 1018.2 1018.1 1.6
21/11:29pm 16.5 16.5 16.3 99 0.1 W 11 15 6 8 1018.2 1018.1 1.6
21/11:23pm 16.6 16.3 16.4 99 0.1 W 13 19 7 10 1018.0 1017.9 1.4
21/11:00pm 16.4 16.4 16.2 99 0.1 NW 11 13 6 7 1018.2 1018.1 0.8
21/10:57pm 16.3 16.6 16.1 99 0.1 NW 9 11 5 6 1018.2 1018.1 0.6
21/10:30pm 16.2 17.0 15.9 98 0.2 SSE 6 7 3 4 1018.0 1017.9 0.4
21/10:00pm 16.1 17.6 15.6 97 0.3 SE 2 7 1 4 1018.0 1017.9 0.0
21/09:30pm 16.2 17.3 15.7 97 0.3 ENE 4 7 2 4 1018.1 1018.0 0.0
21/09:00pm 16.3 16.5 15.8 97 0.3 E 9 9 5 5 1018.0 1017.9 0.0
21/08:30pm 16.2 16.3 15.6 96 0.3 ENE 9 9 5 5 1017.7 1017.7 0.0
21/08:00pm 16.8 17.5 16.0 95 0.5 NE 7 9 4 5 1017.7 1017.7 0.0
21/07:30pm 17.2 17.2 16.2 94 0.6 NE 11 13 6 7 1017.5 1017.5 0.0
21/07:00pm 17.3 17.3 16.2 93 0.7 NE 11 13 6 7 1017.4 1017.4 0.0
21/06:30pm 17.6 17.1 15.9 90 1.0 NE 13 15 7 8 1017.3 1017.3 0.0
21/06:00pm 18.0 16.3 15.8 87 1.3 ENE 19 22 10 12 1017.0 1017.0 0.0

Other formats

Comma delimited format used in spreadsheet applications
http://www.bom.gov.au/fwo/IDT60801/IDT60801.95960.axf

JavaScript Object Notation format (JSON) in row-major order
http://www.bom.gov.au/fwo/IDT60801/IDT60801.95960.json

Data quality

Most of these data are generated automatically and are frequently updated. Quality checks on data are not normally performed. It is possible for incorrect values to appear. Refer to information at About Latest Weather Observations and please check the disclaimer before using these data.